Kaiserslautern Depot Army Heliport ETED

Flugplatz Daten

Name: Kaiserslautern Depot Army Heliport

Ident: ETED

Lat: 49,44777778

Long: 7,839722222

Platzhöhe: 950 ft

IataCode:

City: Kaiserslautern

Metar

2022/02/05 15:00
FQLC 051500Z 25011KT 9999 FEW014 BKN018 FEW020CB OVC080 21/20 Q1017 RMK CB ISOLLETED ALL/D RERA

Taf

Gewünschte Webcam nicht vorhanden? Dann fügen Sie eine hinzu. Sie wird dann so schnell wie möglich freigeschaltet
Url: Title: